Socorro, Texas
Current Conditions -  °F | °C
As of 8:40 PM on Thursday 18 Dec 2014 (Local Time) from MMCS Reporting Station
Scattered Clouds Scattered Clouds  
Wind Chill:   Ceiling: Unl
Heat Index:   Visibility: 10mi
Dew Point:   Wind: 9mph
Humidity: 76%   Direction: 260°W
Pressure: 30.09"   Gusts: NA
Location:  31.66°N, 106.3°W
Report Text: MMCS 190340Z 26008KT 10SM SCT070 08/04 A3009 RMK 8/070
Loading
Personal Weather Stations






























Interactive Weather Map New forecast layout! Learn more

10-Day Weather Forecast

Advertisements
Track Severe Weather on mobile